Time;durP1;ratioP1;P1;durP2;ratioP2;P2;SDS_P1;SDS_P2;PMS_P1;PMS_P2;Temp;Humidity;BMP_temperature;BMP_pressure;BME280_temperature;BME280_humidity;BME280_pressure;Samples;Min_cycle;Max_cycle;Signal;HPM_P1;HPM_P2
2022/04/20 00:01:10;;;;;;;0.00;0.00;;;8.30;95.50;;;;;;5114409;28;20047;-79
2022/04/20 00:03:35;;;;;;;0.00;0.00;;;8.30;95.30;;;;;;5097483;28;20051;-79
2022/04/20 00:06:01;;;;;;;0.00;0.00;;;8.30;95.50;;;;;;5114216;28;20487;-79
2022/04/20 00:08:26;;;;;;;0.00;0.00;;;8.30;95.80;;;;;;5113923;28;20372;-80
2022/04/20 00:10:52;;;;;;;0.00;0.00;;;8.30;96.00;;;;;;5114808;28;20039;-79
2022/04/20 00:13:18;;;;;;;0.00;0.00;;;8.30;95.40;;;;;;5097164;28;20067;-79
2022/04/20 00:15:43;;;;;;;0.88;0.00;;;8.30;95.70;;;;;;5114329;28;20383;-79
2022/04/20 00:18:09;;;;;;;0.00;0.00;;;8.20;96.00;;;;;;5097137;28;20380;-79
2022/04/20 00:20:35;;;;;;;0.98;0.60;;;8.30;95.90;;;;;;5113677;28;20116;-79
2022/04/20 00:23:00;;;;;;;0.00;0.00;;;8.20;96.00;;;;;;5096975;28;20052;-79
2022/04/20 00:25:26;;;;;;;0.00;0.00;;;8.20;96.20;;;;;;5096969;28;20105;-79
2022/04/20 00:27:52;;;;;;;0.00;0.00;;;8.20;96.10;;;;;;5113707;28;20039;-79
2022/04/20 00:30:17;;;;;;;0.73;0.10;;;8.30;96.20;;;;;;5097068;28;20063;-79
2022/04/20 00:32:43;;;;;;;0.38;0.30;;;8.20;96.50;;;;;;5113752;28;20039;-80
2022/04/20 00:35:13;;;;;;;0.00;0.00;;;8.20;96.40;;;;;;5096864;28;20059;-79
2022/04/20 00:37:43;;;;;;;0.65;0.43;;;8.10;96.50;;;;;;5113677;28;20044;-80
2022/04/20 00:40:09;;;;;;;0.00;0.00;;;8.10;96.60;;;;;;5113507;28;20608;-79
2022/04/20 00:42:39;;;;;;;0.08;0.08;;;8.10;96.80;;;;;;5113322;28;20395;-80
2022/04/20 00:45:07;;;;;;;0.08;0.00;;;8.00;97.20;;;;;;5113523;28;20074;-79
2022/04/20 00:47:39;;;;;;;0.00;0.00;;;8.00;96.90;;;;;;5113066;28;20062;-80
2022/04/20 00:50:06;;;;;;;0.03;0.00;;;8.00;97.20;;;;;;5097010;28;20060;-79
2022/04/20 00:52:32;;;;;;;0.00;0.00;;;7.90;97.30;;;;;;5097049;28;20180;-79
2022/04/20 00:54:58;;;;;;;0.00;0.00;;;7.90;97.40;;;;;;5113047;28;20092;-79
2022/04/20 00:57:24;;;;;;;0.00;0.00;;;7.90;98.00;;;;;;5113387;28;20047;-80
2022/04/20 00:59:51;;;;;;;0.00;0.00;;;7.90;98.30;;;;;;5113384;28;20547;-80
2022/04/20 01:02:17;;;;;;;0.00;0.00;;;7.90;98.40;;;;;;5112983;28;20398;-80
2022/04/20 01:04:42;;;;;;;0.00;0.00;;;7.80;97.90;;;;;;5096458;28;20047;-80
2022/04/20 01:07:11;;;;;;;0.00;0.00;;;7.80;98.50;;;;;;5095652;28;20059;-80
2022/04/20 01:09:38;;;;;;;0.00;0.00;;;7.80;98.60;;;;;;5113211;28;20433;-79
2022/04/20 01:12:04;;;;;;;0.20;0.20;;;7.80;98.90;;;;;;5113368;28;20042;-80
2022/04/20 01:14:30;;;;;;;1.75;0.00;;;7.70;98.90;;;;;;5113060;28;20173;-80
2022/04/20 01:16:56;;;;;;;0.00;0.00;;;7.70;99.20;;;;;;5113072;28;20039;-79
2022/04/20 01:19:21;;;;;;;0.00;0.00;;;7.70;98.90;;;;;;5113188;28;20449;-79
2022/04/20 01:21:47;;;;;;;0.10;0.10;;;7.70;98.90;;;;;;5113143;28;20487;-80
2022/04/20 01:24:13;;;;;;;0.00;0.00;;;7.60;99.30;;;;;;5113222;28;20055;-80
2022/04/20 01:26:39;;;;;;;0.00;0.00;;;7.60;99.20;;;;;;5113050;28;20048;-80
2022/04/20 01:29:07;;;;;;;0.43;0.20;;;7.60;99.90;;;;;;5113152;28;20040;-80
2022/04/20 01:31:32;;;;;;;0.03;0.00;;;7.60;99.50;;;;;;5113068;28;20040;-79
2022/04/20 01:33:58;;;;;;;0.00;0.00;;;7.50;99.50;;;;;;5112626;28;20506;-79
2022/04/20 01:36:24;;;;;;;0.30;0.30;;;7.50;99.90;;;;;;5113017;28;20039;-79
2022/04/20 01:38:49;;;;;;;0.15;0.15;;;7.50;99.90;;;;;;5112787;28;20441;-80
2022/04/20 01:41:15;;;;;;;0.00;0.00;;;7.50;99.90;;;;;;5112991;28;20043;-79
2022/04/20 01:43:41;;;;;;;0.00;0.00;;;7.50;99.90;;;;;;5095905;28;20039;-79
2022/04/20 01:46:06;;;;;;;0.10;0.00;;;7.40;99.90;;;;;;5112832;28;20040;-80
2022/04/20 01:48:32;;;;;;;0.00;0.00;;;7.40;99.90;;;;;;5112426;28;20052;-80
2022/04/20 01:53:42;;;;;;;0.22;0.22;;;7.30;99.90;;;;;;5112772;28;20403;-79
2022/04/20 01:56:08;;;;;;;0.00;0.00;;;7.30;99.90;;;;;;5112787;28;20045;-79
2022/04/20 01:58:37;;;;;;;0.00;0.00;;;7.40;99.90;;;;;;5112540;28;20047;-79
2022/04/20 02:02:34;;;;;;;0.43;0.10;;;7.30;99.90;;;;;;5112457;28;20364;-79
2022/04/20 02:03:48;;;;;;;0.10;0.10;;;7.30;99.90;;;;;;5112720;28;20484;-80
2022/04/20 02:06:14;;;;;;;0.00;0.00;;;7.30;99.90;;;;;;5112618;28;20050;-79
2022/04/20 02:08:40;;;;;;;0.65;0.35;;;7.20;99.90;;;;;;5095482;28;20104;-80
2022/04/20 02:11:06;;;;;;;0.00;0.00;;;7.20;99.90;;;;;;5095614;28;20056;-79
2022/04/20 02:13:32;;;;;;;0.00;0.00;;;7.10;99.90;;;;;;5112807;28;20040;-79
2022/04/20 02:15:58;;;;;;;0.00;0.00;;;7.10;99.90;;;;;;5095819;28;20059;-79
2022/04/20 02:18:24;;;;;;;0.00;0.00;;;7.10;99.90;;;;;;5115610;28;20047;-79
2022/04/20 02:20:50;;;;;;;0.38;0.28;;;7.10;99.90;;;;;;5116194;28;20047;-79
2022/04/20 02:23:15;;;;;;;0.15;0.10;;;7.10;99.90;;;;;;5099671;28;20063;-80
2022/04/20 02:25:41;;;;;;;0.20;0.20;;;7.10;99.90;;;;;;5116174;28;20476;-79
2022/04/20 02:28:07;;;;;;;0.00;0.00;;;7.10;99.90;;;;;;5099112;28;20405;-80
2022/04/20 02:30:32;;;;;;;0.00;0.00;;;7.00;99.90;;;;;;5116113;28;20467;-80
2022/04/20 02:32:58;;;;;;;0.13;0.00;;;7.10;99.90;;;;;;5099194;28;20059;-79
2022/04/20 02:35:24;;;;;;;0.13;0.13;;;7.00;99.90;;;;;;5115997;28;20046;-80
2022/04/20 02:37:49;;;;;;;0.00;0.00;;;7.00;99.90;;;;;;5116228;28;20058;-80
2022/04/20 02:40:15;;;;;;;0.40;0.10;;;7.00;99.90;;;;;;5115864;28;20044;-80
2022/04/20 02:42:41;;;;;;;0.65;0.17;;;7.00;99.90;;;;;;5115919;28;20035;-79
2022/04/20 02:45:07;;;;;;;0.00;0.00;;;7.00;99.90;;;;;;5115811;28;20043;-80
2022/04/20 02:47:33;;;;;;;0.00;0.00;;;6.90;99.90;;;;;;5115260;28;20055;-80
2022/04/20 02:49:58;;;;;;;0.10;0.10;;;6.90;99.90;;;;;;5115803;28;20122;-79
2022/04/20 02:52:24;;;;;;;1.60;0.20;;;6.90;99.90;;;;;;5115608;28;20048;-79
2022/04/20 02:54:49;;;;;;;0.00;0.00;;;6.90;99.90;;;;;;5098556;28;20052;-79
2022/04/20 02:57:15;;;;;;;0.00;0.00;;;6.90;99.90;;;;;;5115724;28;20075;-79
2022/04/20 02:59:41;;;;;;;0.20;0.17;;;6.90;99.90;;;;;;5115605;28;20387;-79
2022/04/20 03:02:06;;;;;;;0.00;0.00;;;6.80;99.90;;;;;;5098836;28;20121;-80
2022/04/20 03:04:32;;;;;;;0.80;0.10;;;6.80;99.90;;;;;;5115565;28;20439;-79
2022/04/20 03:06:58;;;;;;;0.00;0.00;;;6.80;99.90;;;;;;5115339;28;20043;-80
2022/04/20 03:09:23;;;;;;;0.20;0.20;;;6.70;99.90;;;;;;5115285;28;20084;-79
2022/04/20 03:11:49;;;;;;;0.00;0.00;;;6.70;99.90;;;;;;5115400;28;20136;-79
2022/04/20 03:14:14;;;;;;;0.03;0.00;;;6.70;99.90;;;;;;5115804;28;20054;-79
2022/04/20 03:16:40;;;;;;;0.00;0.00;;;6.70;99.90;;;;;;5115230;28;20189;-79
2022/04/20 03:19:06;;;;;;;0.43;0.00;;;6.60;99.90;;;;;;5115234;28;20047;-80
2022/04/20 03:21:31;;;;;;;0.00;0.00;;;6.60;99.90;;;;;;5115172;28;20078;-80
2022/04/20 03:23:57;;;;;;;0.00;0.00;;;6.60;99.90;;;;;;5115122;28;20043;-79
2022/04/20 03:26:23;;;;;;;0.00;0.00;;;6.60;99.90;;;;;;5115024;28;20045;-79
2022/04/20 03:28:48;;;;;;;0.00;0.00;;;6.60;99.90;;;;;;5114052;28;20046;-80
2022/04/20 03:31:14;;;;;;;0.00;0.00;;;6.60;99.90;;;;;;5115447;28;20112;-80
2022/04/20 03:33:40;;;;;;;0.00;0.00;;;6.60;99.90;;;;;;5114744;28;20123;-79
2022/04/20 03:36:06;;;;;;;0.00;0.00;;;6.60;99.90;;;;;;5098223;28;20062;-80
2022/04/20 03:38:33;;;;;;;0.22;0.03;;;6.60;99.90;;;;;;5114737;28;20406;-79
2022/04/20 03:40:59;;;;;;;0.00;0.00;;;6.60;99.90;;;;;;5114767;28;20126;-80
2022/04/20 03:43:24;;;;;;;0.25;0.20;;;6.50;99.90;;;;;;5114664;28;20074;-79
2022/04/20 03:45:50;;;;;;;0.00;0.00;;;6.50;99.90;;;;;;5114677;28;20544;-79
2022/04/20 03:48:16;;;;;;;0.00;0.00;;;6.50;99.90;;;;;;5097602;28;20058;-79
2022/04/20 03:50:42;;;;;;;0.80;0.45;;;6.50;99.90;;;;;;5114438;28;20131;-80
2022/04/20 03:53:08;;;;;;;0.00;0.00;;;6.40;99.90;;;;;;5114356;28;20082;-80
2022/04/20 03:55:33;;;;;;;0.55;0.55;;;6.40;99.90;;;;;;5114359;28;20052;-79
2022/04/20 03:57:59;;;;;;;0.00;0.00;;;6.40;99.90;;;;;;5114384;28;20054;-79
2022/04/20 04:00:25;;;;;;;0.00;0.00;;;6.30;99.90;;;;;;5114350;28;20055;-79
2022/04/20 04:02:52;;;;;;;0.00;0.00;;;6.30;99.90;;;;;;5114305;28;20054;-79
2022/04/20 04:05:18;;;;;;;0.00;0.00;;;6.30;99.90;;;;;;5097570;28;20433;-80
2022/04/20 04:07:43;;;;;;;0.00;0.00;;;6.20;99.90;;;;;;5113998;28;20149;-80
2022/04/20 04:10:09;;;;;;;0.00;0.00;;;6.20;99.90;;;;;;5114418;28;20464;-80
2022/04/20 04:12:35;;;;;;;0.00;0.00;;;6.10;99.90;;;;;;5097348;28;20475;-80
2022/04/20 04:15:00;;;;;;;0.00;0.00;;;6.00;99.90;;;;;;5097310;28;20129;-80
2022/04/20 04:17:26;;;;;;;0.00;0.00;;;6.00;99.90;;;;;;5097177;28;20043;-79
2022/04/20 04:19:52;;;;;;;0.00;0.00;;;5.90;99.90;;;;;;5114034;28;20039;-80
2022/04/20 04:22:17;;;;;;;0.00;0.00;;;5.90;99.90;;;;;;5113914;28;20039;-79
2022/04/20 04:24:43;;;;;;;0.13;0.10;;;5.80;99.90;;;;;;5113371;28;20479;-80
2022/04/20 04:27:10;;;;;;;0.00;0.00;;;5.80;99.90;;;;;;5113763;28;20082;-80
2022/04/20 04:29:38;;;;;;;0.00;0.00;;;5.80;99.90;;;;;;5097140;28;20067;-79
2022/04/20 04:32:04;;;;;;;0.60;0.30;;;5.80;99.90;;;;;;5113932;28;20036;-80
2022/04/20 04:34:30;;;;;;;0.03;0.00;;;5.70;99.90;;;;;;5113609;28;20134;-80
2022/04/20 04:36:56;;;;;;;0.52;0.00;;;5.70;99.90;;;;;;5113646;28;20138;-80
2022/04/20 04:39:22;;;;;;;0.00;0.00;;;5.60;99.90;;;;;;5113769;28;20470;-79
2022/04/20 04:41:51;;;;;;;0.00;0.00;;;5.60;99.90;;;;;;5112904;28;20097;-80
2022/04/20 04:44:20;;;;;;;0.00;0.00;;;5.60;99.90;;;;;;5096851;28;20465;-79
2022/04/20 04:49:31;;;;;;;0.00;0.00;;;5.60;99.90;;;;;;5113284;28;20138;-79
2022/04/20 04:51:59;;;;;;;0.00;0.00;;;5.60;99.90;;;;;;5113688;28;20078;-79
2022/04/20 04:54:25;;;;;;;0.00;0.00;;;5.90;99.90;;;;;;5096699;28;20059;-79
2022/04/20 04:56:52;;;;;;;0.00;0.00;;;5.60;99.90;;;;;;5096595;28;20081;-79
2022/04/20 04:59:18;;;;;;;0.00;0.00;;;5.70;99.90;;;;;;5113538;28;20040;-80
2022/04/20 05:01:45;;;;;;;0.00;0.00;;;5.70;99.90;;;;;;5113274;28;20050;-79
2022/04/20 05:04:11;;;;;;;1.63;0.20;;;5.80;99.90;;;;;;5113676;28;20059;-79
2022/04/20 05:06:37;;;;;;;0.00;0.00;;;5.70;99.90;;;;;;5113181;28;20379;-80
2022/04/20 05:09:03;;;;;;;0.00;0.00;;;5.70;99.90;;;;;;5112876;28;20384;-79
2022/04/20 05:11:29;;;;;;;0.00;0.00;;;5.70;99.90;;;;;;5113178;28;20475;-80
2022/04/20 05:13:55;;;;;;;0.00;0.00;;;5.80;99.90;;;;;;5112981;28;20169;-80
2022/04/20 05:16:21;;;;;;;0.00;0.00;;;5.80;99.90;;;;;;5113172;28;20126;-79
2022/04/20 05:18:47;;;;;;;0.00;0.00;;;5.70;99.90;;;;;;5112834;28;20047;-79
2022/04/20 05:21:13;;;;;;;0.00;0.00;;;5.80;99.90;;;;;;5096289;28;20548;-80
2022/04/20 05:23:38;;;;;;;0.00;0.00;;;5.80;99.90;;;;;;5096122;28;20096;-80
2022/04/20 05:26:04;;;;;;;0.05;0.00;;;5.90;99.90;;;;;;5113062;28;20051;-80
2022/04/20 05:28:30;;;;;;;0.00;0.00;;;5.90;99.90;;;;;;5096042;28;20506;-80
2022/04/20 05:30:55;;;;;;;0.00;0.00;;;6.00;99.90;;;;;;5096018;28;20052;-79
2022/04/20 05:33:21;;;;;;;0.00;0.00;;;6.10;99.90;;;;;;5096075;28;20056;-80
2022/04/20 05:35:47;;;;;;;0.00;0.00;;;6.10;99.90;;;;;;5112905;28;20040;-80
2022/04/20 05:43:41;;;;;;;0.93;0.00;;;6.40;99.90;;;;;;5112765;28;20504;-80
2022/04/20 05:46:06;;;;;;;0.00;0.00;;;6.40;99.90;;;;;;5113223;28;20108;-79
2022/04/20 05:48:33;;;;;;;0.68;0.30;;;6.50;99.90;;;;;;5112200;28;20051;-80
2022/04/20 05:50:59;;;;;;;0.00;0.00;;;6.50;99.90;;;;;;5112798;28;20502;-80
2022/04/20 05:53:24;;;;;;;0.00;0.00;;;6.70;99.90;;;;;;5115919;28;20130;-80
2022/04/20 05:55:50;;;;;;;0.00;0.00;;;6.70;99.90;;;;;;5116716;28;20039;-79
2022/04/20 05:58:16;;;;;;;0.00;0.00;;;6.80;99.90;;;;;;5116633;28;20039;-80
2022/04/20 06:00:41;;;;;;;0.70;0.13;;;6.80;99.90;;;;;;5116464;28;20040;-80
2022/04/20 06:03:07;;;;;;;0.00;0.00;;;6.90;99.90;;;;;;5116697;28;20051;-80
2022/04/20 06:05:33;;;;;;;0.15;0.13;;;7.00;99.90;;;;;;5099856;28;20406;-80
2022/04/20 06:07:59;;;;;;;0.00;0.00;;;7.20;99.90;;;;;;5099383;28;20083;-80
2022/04/20 06:10:24;;;;;;;0.52;0.03;;;7.40;99.90;;;;;;5116465;28;20146;-79
2022/04/20 06:12:50;;;;;;;0.22;0.00;;;7.70;99.90;;;;;;5099177;28;20055;-80
2022/04/20 06:15:17;;;;;;;0.10;0.08;;;7.90;99.90;;;;;;5116442;28;20491;-80
2022/04/20 06:17:43;;;;;;;0.00;0.00;;;8.10;99.90;;;;;;5099719;28;20495;-80
2022/04/20 06:20:09;;;;;;;0.00;0.00;;;8.20;99.90;;;;;;5099326;28;20085;-80
2022/04/20 06:22:35;;;;;;;0.13;0.13;;;8.30;99.90;;;;;;5116210;28;20039;-80
2022/04/20 06:25:01;;;;;;;0.93;0.00;;;8.60;99.90;;;;;;5116212;28;20208;-79
2022/04/20 06:27:30;;;;;;;0.10;0.03;;;8.80;99.90;;;;;;5099216;28;20047;-79
2022/04/20 06:29:56;;;;;;;0.25;0.25;;;9.00;99.90;;;;;;5099086;28;20558;-79
2022/04/20 06:32:24;;;;;;;0.28;0.00;;;9.20;99.90;;;;;;5098729;28;20060;-80
2022/04/20 06:34:50;;;;;;;1.17;0.10;;;9.40;99.90;;;;;;5115918;28;20055;-79
2022/04/20 06:37:17;;;;;;;0.00;0.00;;;9.50;98.30;;;;;;5099216;28;20542;-79
2022/04/20 06:39:43;;;;;;;0.00;0.00;;;9.60;98.40;;;;;;5115853;28;20048;-79
2022/04/20 06:42:08;;;;;;;0.52;0.00;;;9.70;98.00;;;;;;5115908;28;20036;-79
2022/04/20 06:44:34;;;;;;;0.00;0.00;;;9.90;97.20;;;;;;5115923;28;20040;-80
2022/04/20 06:47:00;;;;;;;0.00;0.00;;;10.00;97.20;;;;;;5115535;28;20047;-80
2022/04/20 06:49:26;;;;;;;0.00;0.00;;;10.50;97.80;;;;;;5115749;28;20050;-80
2022/04/20 07:00:04;;;;;;;0.00;0.00;;;13.90;85.40;;;;;;5115450;28;20044;-79
2022/04/20 07:02:33;;;;;;;0.00;0.00;;;14.50;80.00;;;;;;5115195;28;20429;-80
2022/04/20 07:04:59;;;;;;;0.00;0.00;;;14.70;75.50;;;;;;5114292;28;20471;-79
2022/04/20 07:07:24;;;;;;;0.00;0.00;;;14.90;71.60;;;;;;5115178;28;20096;-79
2022/04/20 07:09:50;;;;;;;0.00;0.00;;;15.10;71.60;;;;;;5098704;28;20059;-79
2022/04/20 07:12:16;;;;;;;0.00;0.00;;;15.70;70.70;;;;;;5098607;28;20078;-79
2022/04/20 07:14:41;;;;;;;0.10;0.10;;;15.80;66.00;;;;;;5098496;28;20051;-80
2022/04/20 07:17:07;;;;;;;0.00;0.00;;;15.70;65.20;;;;;;5098385;28;20058;-79
2022/04/20 07:19:34;;;;;;;0.00;0.00;;;15.10;63.80;;;;;;5115879;28;20051;-80
2022/04/20 07:22:00;;;;;;;0.00;0.00;;;14.60;66.20;;;;;;5115125;28;20176;-80
2022/04/20 07:24:26;;;;;;;2.20;0.52;;;14.40;66.60;;;;;;5114938;28;20134;-80
2022/04/20 07:26:51;;;;;;;0.00;0.00;;;14.80;67.00;;;;;;5115091;28;20043;-80
2022/04/20 07:29:17;;;;;;;0.08;0.00;;;15.60;66.10;;;;;;5114938;28;20185;-80
2022/04/20 07:31:43;;;;;;;0.55;0.55;;;15.70;63.40;;;;;;5098041;28;20086;-80
2022/04/20 07:34:09;;;;;;;0.52;0.22;;;15.70;62.30;;;;;;5097649;28;20100;-80
2022/04/20 07:36:34;;;;;;;0.17;0.17;;;15.90;63.10;;;;;;5115041;28;20043;-80
2022/04/20 07:39:00;;;;;;;0.00;0.00;;;16.00;63.10;;;;;;5097912;28;20422;-80
2022/04/20 07:41:26;;;;;;;0.35;0.17;;;16.00;62.70;;;;;;5114657;28;20540;-80
2022/04/20 07:43:51;;;;;;;0.00;0.00;;;15.70;62.40;;;;;;5114631;28;20048;-80
2022/04/20 07:46:19;;;;;;;0.10;0.10;;;15.20;62.80;;;;;;5114522;28;20043;-80
2022/04/20 07:48:45;;;;;;;0.10;0.05;;;15.00;63.90;;;;;;5114229;28;20063;-80
2022/04/20 07:51:10;;;;;;;0.25;0.25;;;14.60;63.40;;;;;;5114450;28;20425;-80
2022/04/20 07:53:36;;;;;;;0.00;0.00;;;14.60;63.70;;;;;;5114534;28;20104;-81
2022/04/20 07:56:02;;;;;;;1.20;0.20;;;14.60;64.60;;;;;;5114811;28;20043;-80
2022/04/20 07:58:28;;;;;;;0.00;0.00;;;14.50;62.80;;;;;;5097376;28;20138;-81
2022/04/20 08:00:54;;;;;;;0.00;0.00;;;14.40;61.90;;;;;;5114313;28;20035;-80
2022/04/20 08:03:20;;;;;;;0.00;0.00;;;14.40;63.60;;;;;;5114284;28;20044;-81
2022/04/20 08:05:51;;;;;;;1.05;0.30;;;14.20;63.40;;;;;;5114232;28;20035;-81
2022/04/20 08:08:17;;;;;;;0.00;0.00;;;14.00;61.10;;;;;;5096999;28;20522;-80
2022/04/20 08:10:43;;;;;;;0.00;0.00;;;14.30;64.00;;;;;;5114259;28;20050;-81
2022/04/20 08:15:55;;;;;;;0.10;0.10;;;14.50;63.20;;;;;;5114176;28;20115;-81
2022/04/20 08:18:21;;;;;;;0.35;0.25;;;14.60;62.50;;;;;;5114055;28;20059;-81
2022/04/20 08:20:47;;;;;;;0.00;0.00;;;14.60;64.00;;;;;;5113888;28;20093;-81
2022/04/20 08:23:13;;;;;;;0.00;0.00;;;14.70;62.20;;;;;;5096959;28;20131;-81
2022/04/20 08:25:41;;;;;;;0.00;0.00;;;14.60;62.40;;;;;;5096954;28;20139;-81
2022/04/20 08:28:08;;;;;;;0.17;0.17;;;14.60;61.70;;;;;;5113585;28;20039;-81
2022/04/20 08:30:35;;;;;;;0.40;0.17;;;14.40;61.90;;;;;;5113701;28;20126;-81
2022/04/20 08:33:01;;;;;;;0.30;0.10;;;14.40;63.50;;;;;;5113810;28;20036;-81
2022/04/20 08:35:27;;;;;;;0.32;0.32;;;14.40;61.50;;;;;;5096996;28;20140;-81
2022/04/20 08:37:52;;;;;;;0.00;0.00;;;14.40;63.10;;;;;;5096725;28;20126;-81
2022/04/20 08:40:18;;;;;;;0.03;0.03;;;14.50;62.70;;;;;;5113612;28;20387;-81
2022/04/20 08:42:45;;;;;;;0.38;0.30;;;14.40;62.90;;;;;;5096831;28;20097;-81
2022/04/20 08:45:12;;;;;;;0.20;0.00;;;14.50;64.70;;;;;;5113666;28;20090;-81
2022/04/20 08:47:39;;;;;;;0.98;0.30;;;14.40;62.80;;;;;;5096489;28;20177;-81
2022/04/20 08:50:10;;;;;;;0.00;0.00;;;14.40;64.40;;;;;;5113289;28;20047;-81
2022/04/20 08:52:37;;;;;;;0.90;0.55;;;14.60;64.40;;;;;;5113430;28;20048;-81
2022/04/20 08:55:21;;;;;;;0.00;0.00;;;14.80;64.50;;;;;;5113419;28;20035;-81
2022/04/20 08:57:49;;;;;;;0.00;0.00;;;15.00;64.50;;;;;;5113272;28;20040;-81
2022/04/20 09:00:21;;;;;;;1.35;0.22;;;15.20;62.50;;;;;;5096396;28;20054;-81
2022/04/20 09:02:50;;;;;;;0.00;0.00;;;15.30;63.30;;;;;;5113403;28;20091;-81
2022/04/20 09:05:16;;;;;;;0.00;0.00;;;15.40;62.80;;;;;;5113210;28;20126;-81
2022/04/20 09:07:41;;;;;;;0.15;0.00;;;15.30;60.60;;;;;;5095936;28;20138;-81
2022/04/20 09:10:07;;;;;;;0.03;0.03;;;15.30;61.70;;;;;;5113423;28;20134;-81
2022/04/20 09:12:33;;;;;;;0.00;0.00;;;15.40;60.60;;;;;;5113809;28;20094;-81
2022/04/20 09:15:00;;;;;;;0.10;0.10;;;15.60;61.00;;;;;;5113169;28;20044;-81
2022/04/20 09:17:26;;;;;;;0.00;0.00;;;15.60;60.00;;;;;;5096361;28;20062;-81
2022/04/20 09:19:54;;;;;;;0.00;0.00;;;15.90;58.40;;;;;;5113111;28;20040;-81
2022/04/20 09:22:25;;;;;;;0.00;0.00;;;16.00;57.20;;;;;;5096064;28;20093;-81
2022/04/20 09:25:14;;;;;;;0.00;0.00;;;16.20;58.40;;;;;;5096132;28;20047;-81
2022/04/20 09:27:42;;;;;;;0.00;0.00;;;16.40;54.30;;;;;;5098321;28;20118;-81
2022/04/20 09:30:16;;;;;;;0.43;0.10;;;16.50;54.50;;;;;;5117426;28;20047;-81
2022/04/20 09:32:44;;;;;;;0.53;0.00;;;16.60;56.20;;;;;;5100353;28;20052;-81
2022/04/20 09:35:12;;;;;;;0.95;0.43;;;16.40;50.70;;;;;;5100382;28;20308;-81
2022/04/20 09:37:39;;;;;;;0.05;0.00;;;16.20;49.30;;;;;;5116955;28;20058;-81
2022/04/20 09:40:10;;;;;;;0.00;0.00;;;16.00;48.40;;;;;;5117472;28;20113;-81
2022/04/20 09:42:36;;;;;;;0.00;0.00;;;16.30;51.70;;;;;;5117220;28;20459;-81
2022/04/20 09:45:05;;;;;;;0.00;0.00;;;16.30;49.60;;;;;;5117069;28;20127;-81
2022/04/20 09:50:24;;;;;;;0.00;0.00;;;16.30;48.70;;;;;;5117442;28;20048;-81
2022/04/20 09:52:54;;;;;;;0.00;0.00;;;16.10;48.40;;;;;;5099866;28;20052;-81
2022/04/20 09:55:32;;;;;;;0.73;0.47;;;16.20;49.20;;;;;;5116765;28;20059;-82
2022/04/20 09:58:11;;;;;;;0.00;0.00;;;16.50;49.40;;;;;;5116488;28;20499;-81
2022/04/20 10:00:42;;;;;;;0.38;0.20;;;16.90;50.80;;;;;;5116612;28;20136;-81
2022/04/20 10:03:08;;;;;;;0.00;0.00;;;17.10;49.60;;;;;;5117136;28;20438;-81
2022/04/20 10:05:34;;;;;;;0.00;0.00;;;17.30;48.70;;;;;;5099843;28;20062;-81
2022/04/20 10:08:02;;;;;;;0.00;0.00;;;17.50;51.10;;;;;;5116403;28;20050;-81
2022/04/20 10:10:31;;;;;;;0.10;0.10;;;17.70;49.20;;;;;;5116825;28;20062;-81
2022/04/20 10:12:58;;;;;;;0.43;0.22;;;17.60;47.20;;;;;;5116507;28;20493;-81
2022/04/20 10:18:31;;;;;;;0.00;0.00;;;17.70;48.10;;;;;;5116404;28;20048;-81
2022/04/20 10:20:59;;;;;;;0.00;0.00;;;18.00;49.30;;;;;;5099841;28;20082;-81
2022/04/20 10:23:25;;;;;;;0.00;0.00;;;17.90;47.00;;;;;;5099001;28;20134;-81
2022/04/20 10:25:53;;;;;;;0.73;0.00;;;17.90;48.90;;;;;;5116250;28;20134;-81
2022/04/20 10:28:45;;;;;;;0.00;0.00;;;17.60;46.80;;;;;;5098990;28;20051;-81
2022/04/20 10:31:35;;;;;;;0.00;0.00;;;17.90;49.30;;;;;;5116181;28;20044;-81
2022/04/20 10:34:02;;;;;;;0.05;0.00;;;18.10;49.60;;;;;;5116196;28;20047;-81
2022/04/20 10:36:33;;;;;;;0.10;0.00;;;18.20;48.00;;;;;;5116109;28;20126;-81
2022/04/20 10:39:27;;;;;;;0.00;0.00;;;18.10;47.40;;;;;;5099010;28;20143;-81
2022/04/20 10:42:20;;;;;;;0.00;0.00;;;18.20;47.60;;;;;;5113613;28;20051;-81
2022/04/20 10:45:04;;;;;;;0.08;0.00;;;18.20;46.90;;;;;;5099143;28;20051;-81
2022/04/20 10:47:38;;;;;;;0.00;0.00;;;18.00;46.80;;;;;;5115569;28;20040;-81
2022/04/20 10:50:18;;;;;;;0.20;0.20;;;18.10;47.10;;;;;;5099066;28;20138;-81
2022/04/20 10:52:47;;;;;;;0.00;0.00;;;18.50;49.10;;;;;;5115732;28;20047;-81
2022/04/20 10:55:13;;;;;;;0.00;0.00;;;18.40;47.10;;;;;;5098900;28;20051;-81
2022/04/20 10:57:41;;;;;;;0.00;0.00;;;18.50;48.00;;;;;;5115549;28;20048;-81
2022/04/20 11:00:16;;;;;;;0.00;0.00;;;18.50;47.30;;;;;;5115711;28;20040;-81
2022/04/20 11:02:49;;;;;;;0.50;0.22;;;18.40;46.20;;;;;;5115646;28;20100;-81
2022/04/20 11:05:19;;;;;;;0.20;0.13;;;18.40;47.70;;;;;;5098686;28;20542;-81
2022/04/20 11:08:01;;;;;;;1.88;0.20;;;18.50;47.30;;;;;;5098693;28;20066;-81
2022/04/20 11:10:27;;;;;;;0.00;0.00;;;18.50;47.00;;;;;;5115455;28;20046;-81
2022/04/20 11:19:05;;;;;;;0.00;0.00;;;18.70;46.70;;;;;;5115338;28;20062;-81
2022/04/20 11:21:31;;;;;;;0.00;0.00;;;18.70;47.20;;;;;;5115549;28;20181;-81
2022/04/20 11:24:06;;;;;;;0.00;0.00;;;18.70;47.50;;;;;;5115261;28;20047;-81
2022/04/20 11:26:48;;;;;;;0.00;0.00;;;18.70;47.10;;;;;;5098497;28;20052;-81
2022/04/20 11:29:24;;;;;;;0.00;0.00;;;18.90;48.00;;;;;;5097714;28;20044;-81
2022/04/20 11:31:54;;;;;;;0.05;0.00;;;18.90;46.50;;;;;;5115795;28;20040;-81
2022/04/20 11:34:20;;;;;;;0.00;0.00;;;19.00;48.10;;;;;;5114761;28;20050;-81
2022/04/20 11:36:51;;;;;;;0.00;0.00;;;18.80;45.80;;;;;;5114947;28;20051;-81
2022/04/20 11:39:19;;;;;;;0.20;0.20;;;19.10;49.90;;;;;;5114864;28;20440;-81
2022/04/20 11:41:47;;;;;;;0.00;0.00;;;19.10;46.50;;;;;;5114780;28;20444;-81
2022/04/20 11:44:30;;;;;;;0.00;0.00;;;19.10;47.20;;;;;;5097921;28;20047;-81
2022/04/20 11:47:01;;;;;;;0.00;0.00;;;19.30;46.70;;;;;;5098013;28;20043;-81
2022/04/20 11:49:48;;;;;;;0.00;0.00;;;19.40;46.00;;;;;;5097242;28;20055;-81
2022/04/20 11:52:16;;;;;;;0.00;0.00;;;19.60;46.40;;;;;;5114857;28;20044;-81
2022/04/20 11:54:47;;;;;;;0.00;0.00;;;19.70;47.30;;;;;;5114608;28;20059;-81
2022/04/20 11:57:15;;;;;;;0.00;0.00;;;19.90;46.40;;;;;;5114543;28;20487;-81
2022/04/20 11:59:45;;;;;;;0.00;0.00;;;20.00;46.50;;;;;;5114564;28;20044;-81
2022/04/20 12:02:14;;;;;;;0.00;0.00;;;19.80;46.40;;;;;;5114355;28;20082;-81
2022/04/20 12:04:41;;;;;;;0.80;0.00;;;19.70;44.70;;;;;;5114384;28;20047;-81
2022/04/20 12:07:08;;;;;;;0.20;0.10;;;19.80;46.20;;;;;;5114196;28;20042;-81
2022/04/20 12:09:36;;;;;;;0.00;0.00;;;19.80;46.20;;;;;;5097238;28;20070;-81
2022/04/20 12:12:10;;;;;;;0.00;0.00;;;19.60;45.10;;;;;;5114121;28;20078;-80
2022/04/20 12:14:38;;;;;;;0.00;0.00;;;19.70;46.20;;;;;;5096931;28;20051;-80
2022/04/20 12:17:09;;;;;;;0.05;0.00;;;19.80;46.10;;;;;;5114091;28;20441;-80
2022/04/20 12:19:35;;;;;;;0.00;0.00;;;19.90;44.40;;;;;;5096612;28;20036;-80
2022/04/20 12:22:05;;;;;;;0.05;0.05;;;20.10;44.80;;;;;;5114102;28;20040;-81
2022/04/20 12:24:31;;;;;;;0.20;0.10;;;20.00;43.90;;;;;;5097166;28;20372;-80
2022/04/20 12:26:58;;;;;;;0.45;0.20;;;20.10;45.10;;;;;;5113994;28;20043;-81
2022/04/20 12:29:27;;;;;;;0.00;0.00;;;20.10;45.40;;;;;;5097067;28;20048;-81
2022/04/20 12:31:57;;;;;;;0.00;0.00;;;20.20;45.40;;;;;;5113845;28;20055;-81
2022/04/20 12:34:25;;;;;;;0.00;0.00;;;20.20;46.00;;;;;;5113678;28;20067;-81
2022/04/20 12:36:54;;;;;;;0.00;0.00;;;20.20;44.60;;;;;;5114195;28;20467;-81
2022/04/20 12:39:28;;;;;;;0.00;0.00;;;20.40;45.50;;;;;;5096925;28;20549;-81
2022/04/20 12:41:59;;;;;;;0.00;0.00;;;20.40;44.30;;;;;;5113549;28;20649;-81
2022/04/20 12:44:54;;;;;;;0.00;0.00;;;20.50;45.00;;;;;;5113569;28;20088;-81
2022/04/20 12:47:20;;;;;;;0.00;0.00;;;20.70;46.60;;;;;;5096641;28;20044;-81
2022/04/20 12:49:48;;;;;;;0.00;0.00;;;20.60;45.40;;;;;;5113246;28;20059;-81
2022/04/20 12:52:15;;;;;;;0.30;0.00;;;20.70;46.50;;;;;;5113554;28;20055;-81
2022/04/20 12:54:56;;;;;;;0.00;0.00;;;20.90;45.60;;;;;;5113516;28;20044;-81
2022/04/20 13:03:03;;;;;;;0.00;0.00;;;20.40;43.80;;;;;;5111947;28;20502;-81
2022/04/20 13:05:30;;;;;;;0.10;0.08;;;20.50;48.60;;;;;;5113215;28;20134;-81
2022/04/20 13:07:56;;;;;;;0.10;0.10;;;20.40;46.90;;;;;;5112930;28;20123;-81
2022/04/20 13:10:23;;;;;;;0.00;0.00;;;20.20;45.00;;;;;;5113186;28;20475;-81
2022/04/20 13:12:50;;;;;;;0.00;0.00;;;20.50;49.10;;;;;;5113194;28;20146;-81
2022/04/20 13:15:16;;;;;;;0.30;0.20;;;20.60;47.30;;;;;;5113322;28;20052;-81
2022/04/20 13:17:42;;;;;;;0.17;0.13;;;20.50;45.70;;;;;;5096378;28;20051;-81
2022/04/20 13:20:08;;;;;;;0.00;0.00;;;20.30;45.50;;;;;;5096993;28;20059;-81
2022/04/20 13:22:34;;;;;;;0.20;0.03;;;20.20;46.10;;;;;;5113314;28;20043;-81
2022/04/20 13:27:56;;;;;;;1.17;0.38;;;20.30;47.30;;;;;;5113021;28;20047;-81
2022/04/20 13:30:22;;;;;;;0.85;0.57;;;19.90;46.10;;;;;;5112919;28;20070;-81
2022/04/20 13:32:48;;;;;;;0.00;0.00;;;20.00;46.40;;;;;;5112897;28;20487;-81
2022/04/20 13:35:14;;;;;;;0.00;0.00;;;19.90;47.40;;;;;;5113140;28;20071;-81
2022/04/20 13:37:39;;;;;;;0.00;0.00;;;20.10;48.90;;;;;;5112960;28;20100;-81